Time;durP1;ratioP1;P1;durP2;ratioP2;P2;SDS_P1;SDS_P2;PMS_P1;PMS_P2;Temp;Humidity;BMP_temperature;BMP_pressure;BME280_temperature;BME280_humidity;BME280_pressure;Samples;Min_cycle;Max_cycle;Signal;HPM_P1;HPM_P2
2022/09/01 00:02:07;;;;;;;;;;;24.60;57.90;;;;;;6234525;28;20002;-39
2022/09/01 00:05:09;;;;;;;;;;;24.90;58.10;;;;;;6229348;28;20610;-40
2022/09/01 00:08:11;;;;;;;;;;;24.90;58.10;;;;;;6250043;28;20033;-40
2022/09/01 00:11:19;;;;;;;;;;;24.70;58.00;;;;;;6234418;28;19939;-41
2022/09/01 00:14:23;;;;;;;;;;;24.50;58.00;;;;;;6252025;28;19932;-39
2022/09/01 00:17:33;;;;;;;;;;;25.00;58.20;;;;;;6250430;28;19932;-39
2022/09/01 00:20:35;;;;;;;;;;;24.60;58.00;;;;;;6252795;28;20042;-43
2022/09/01 00:23:37;;;;;;;;;;;24.80;58.20;;;;;;6254673;28;20846;-41
2022/09/01 00:26:38;;;;;;;;;;;24.60;58.10;;;;;;6257928;28;19954;-40
2022/09/01 00:29:40;;;;;;;;;;;24.80;58.20;;;;;;6257412;28;19939;-41
2022/09/01 00:32:45;;;;;;;;;;;24.70;58.10;;;;;;6252259;28;20047;-40
2022/09/01 00:35:47;;;;;;;;;;;24.60;58.10;;;;;;6254190;28;19932;-40
2022/09/01 00:38:49;;;;;;;;;;;24.50;58.10;;;;;;6251725;28;19932;-40
2022/09/01 00:41:50;;;;;;;;;;;24.90;58.40;;;;;;6236375;28;19933;-40
2022/09/01 00:44:52;;;;;;;;;;;24.60;58.20;;;;;;6252355;28;19946;-40
2022/09/01 00:47:53;;;;;;;;;;;24.80;58.40;;;;;;6255273;28;20009;-39
2022/09/01 00:50:55;;;;;;;;;;;24.50;58.20;;;;;;6243495;28;19940;-40
2022/09/01 00:53:57;;;;;;;;;;;24.90;58.40;;;;;;6254539;28;19983;-40
2022/09/01 00:56:59;;;;;;;;;;;24.60;58.30;;;;;;6254014;28;20042;-42
2022/09/01 01:00:06;;;;;;;;;;;24.50;58.30;;;;;;6235096;28;19966;-39
2022/09/01 01:03:08;;;;;;;;;;;24.60;58.30;;;;;;6253957;28;19933;-39
2022/09/01 01:06:12;;;;;;;;;;;24.50;58.30;;;;;;6225112;28;19932;-39
2022/09/01 01:09:13;;;;;;;;;;;24.50;58.40;;;;;;6249832;28;19928;-40
2022/09/01 01:12:16;;;;;;;;;;;24.80;58.60;;;;;;6249311;28;19939;-39
2022/09/01 01:15:18;;;;;;;;;;;24.40;58.30;;;;;;6247942;28;19935;-42
2022/09/01 01:18:23;;;;;;;;;;;24.90;58.60;;;;;;6251165;28;19936;-40
2022/09/01 01:24:47;;;;;;;;;;;24.80;58.50;;;;;;6250793;28;20886;-43
2022/09/01 01:27:48;;;;;;;;;;;24.50;58.40;;;;;;6255867;28;19940;-39
2022/09/01 01:30:54;;;;;;;;;;;24.70;58.50;;;;;;6248542;28;19932;-40
2022/09/01 01:33:56;;;;;;;;;;;24.80;58.60;;;;;;6253330;28;19928;-39
2022/09/01 01:37:00;;;;;;;;;;;24.80;58.70;;;;;;6253119;28;19932;-41
2022/09/01 01:40:03;;;;;;;;;;;25.20;58.90;;;;;;6255089;28;20023;-40
2022/09/01 01:43:05;;;;;;;;;;;24.50;58.50;;;;;;6256182;28;19929;-41
2022/09/01 01:46:07;;;;;;;;;;;24.70;58.80;;;;;;6230072;28;20463;-40
2022/09/01 01:49:14;;;;;;;;;;;25.00;58.80;;;;;;6224038;28;20413;-42
2022/09/01 01:52:16;;;;;;;;;;;24.70;58.70;;;;;;6241404;28;20042;-42
2022/09/01 01:55:22;;;;;;;;;;;24.50;58.60;;;;;;6243308;28;19948;-41
2022/09/01 01:58:28;;;;;;;;;;;24.70;58.70;;;;;;6230883;28;20585;-40
2022/09/01 02:01:30;;;;;;;;;;;24.60;58.70;;;;;;6240004;28;20240;-40
2022/09/01 02:04:33;;;;;;;;;;;24.70;58.80;;;;;;6246670;28;20617;-40
2022/09/01 02:07:41;;;;;;;;;;;24.80;58.80;;;;;;6256727;28;19939;-40
2022/09/01 02:10:45;;;;;;;;;;;24.60;58.80;;;;;;6244596;28;20135;-41
2022/09/01 02:13:48;;;;;;;;;;;24.60;58.70;;;;;;6232051;28;20165;-40
2022/09/01 02:16:49;;;;;;;;;;;24.50;58.70;;;;;;6240733;28;19939;-39
2022/09/01 02:19:55;;;;;;;;;;;24.80;58.90;;;;;;6238524;28;19932;-41
2022/09/01 02:22:56;;;;;;;;;;;24.50;58.80;;;;;;6237227;28;20173;-39
2022/09/01 02:26:01;;;;;;;;;;;24.70;58.90;;;;;;6240749;28;20001;-41
2022/09/01 02:29:22;;;;;;;;;;;24.50;58.80;;;;;;6236827;28;21244;-41
2022/09/01 02:32:27;;;;;;;;;;;24.80;59.00;;;;;;6220944;28;20604;-41
2022/09/01 02:35:30;;;;;;;;;;;24.80;59.00;;;;;;6243088;28;19928;-40
2022/09/01 02:38:33;;;;;;;;;;;24.60;58.90;;;;;;6252164;28;20040;-41
2022/09/01 02:41:35;;;;;;;;;;;24.30;58.80;;;;;;6253715;28;20043;-39
2022/09/01 02:44:39;;;;;;;;;;;24.60;58.90;;;;;;6253858;28;19928;-40
2022/09/01 02:47:44;;;;;;;;;;;24.40;58.90;;;;;;6233224;28;19966;-41
2022/09/01 02:50:49;;;;;;;;;;;24.60;58.90;;;;;;6253577;28;19931;-39
2022/09/01 02:53:51;;;;;;;;;;;24.60;59.00;;;;;;6236365;28;19925;-40
2022/09/01 02:56:53;;;;;;;;;;;24.80;59.20;;;;;;6256263;28;19927;-41
2022/09/01 02:59:57;;;;;;;;;;;24.40;58.90;;;;;;6254063;28;19932;-40
2022/09/01 03:03:00;;;;;;;;;;;24.50;59.00;;;;;;6252490;28;19940;-40
2022/09/01 03:06:03;;;;;;;;;;;24.70;59.10;;;;;;6256327;28;19932;-39
2022/09/01 03:09:07;;;;;;;;;;;24.70;59.10;;;;;;6249776;28;20019;-40
2022/09/01 03:12:09;;;;;;;;;;;24.40;59.00;;;;;;6256046;28;20837;-40
2022/09/01 03:15:12;;;;;;;;;;;24.80;59.20;;;;;;6249723;28;20811;-39
2022/09/01 03:18:14;;;;;;;;;;;24.40;59.00;;;;;;6251049;28;19939;-40
2022/09/01 03:21:19;;;;;;;;;;;24.30;58.90;;;;;;6233048;28;19972;-39
2022/09/01 03:24:21;;;;;;;;;;;24.50;59.10;;;;;;6253067;28;20038;-40
2022/09/01 03:27:23;;;;;;;;;;;24.50;59.10;;;;;;6251388;28;19933;-42
2022/09/01 03:30:25;;;;;;;;;;;24.40;59.00;;;;;;6253805;28;19952;-40
2022/09/01 03:33:27;;;;;;;;;;;24.70;59.20;;;;;;6250583;28;19964;-42
2022/09/01 03:36:32;;;;;;;;;;;24.60;59.20;;;;;;6253995;28;19928;-42
2022/09/01 03:39:34;;;;;;;;;;;24.30;59.00;;;;;;6229726;28;20823;-41
2022/09/01 03:42:37;;;;;;;;;;;24.30;59.10;;;;;;6252605;28;19928;-41
2022/09/01 03:45:39;;;;;;;;;;;24.60;59.20;;;;;;6254199;28;21018;-40
2022/09/01 03:48:42;;;;;;;;;;;24.30;59.10;;;;;;6241880;28;19925;-40
2022/09/01 03:51:44;;;;;;;;;;;24.60;59.20;;;;;;6255389;28;19939;-40
2022/09/01 03:54:49;;;;;;;;;;;24.20;59.00;;;;;;6255331;28;20842;-40
2022/09/01 03:57:53;;;;;;;;;;;24.80;59.30;;;;;;6254321;28;20012;-40
2022/09/01 04:00:57;;;;;;;;;;;24.30;59.10;;;;;;6241044;28;20763;-40
2022/09/01 04:04:00;;;;;;;;;;;24.20;59.10;;;;;;6241125;28;19928;-40
2022/09/01 04:07:06;;;;;;;;;;;24.30;59.20;;;;;;6256220;28;19928;-39
2022/09/01 04:10:10;;;;;;;;;;;24.50;59.40;;;;;;6254321;28;19959;-39
2022/09/01 04:13:12;;;;;;;;;;;24.20;59.20;;;;;;6257445;28;19934;-42
2022/09/01 04:18:04;;;;;;;;;;;24.40;59.30;;;;;;6233323;28;19927;-41
2022/09/01 04:19:41;;;;;;;;;;;24.20;59.20;;;;;;6236144;28;19932;-40
2022/09/01 04:22:46;;;;;;;;;;;24.20;59.20;;;;;;6251519;28;20841;-43
2022/09/01 04:25:49;;;;;;;;;;;24.10;59.20;;;;;;6251274;28;19932;-40
2022/09/01 04:28:52;;;;;;;;;;;24.40;59.30;;;;;;6247294;28;19928;-40
2022/09/01 04:32:00;;;;;;;;;;;24.20;59.20;;;;;;6226971;28;20021;-40
2022/09/01 04:35:04;;;;;;;;;;;24.40;59.30;;;;;;6243806;28;21027;-40
2022/09/01 04:38:07;;;;;;;;;;;24.50;59.40;;;;;;6228863;28;19940;-43
2022/09/01 04:41:09;;;;;;;;;;;24.30;59.30;;;;;;6250338;28;20020;-40
2022/09/01 04:44:11;;;;;;;;;;;24.20;59.30;;;;;;6248578;28;20053;-39
2022/09/01 04:47:15;;;;;;;;;;;24.30;59.30;;;;;;6251793;28;19932;-40
2022/09/01 04:50:20;;;;;;;;;;;24.10;59.20;;;;;;6252533;28;20959;-40
2022/09/01 04:53:39;;;;;;;;;;;24.60;59.50;;;;;;6249907;28;20758;-40
2022/09/01 04:56:42;;;;;;;;;;;24.30;59.30;;;;;;6236438;28;19938;-41
2022/09/01 04:59:47;;;;;;;;;;;24.50;59.50;;;;;;6236231;28;19936;-39
2022/09/01 05:02:52;;;;;;;;;;;24.50;59.40;;;;;;6242734;28;20150;-42
2022/09/01 05:05:54;;;;;;;;;;;24.20;59.30;;;;;;6250974;28;19935;-42
2022/09/01 05:08:58;;;;;;;;;;;24.30;59.50;;;;;;6250522;28;20068;-41
2022/09/01 05:12:15;;;;;;;;;;;24.10;59.30;;;;;;6252002;28;20927;-40
2022/09/01 05:15:20;;;;;;;;;;;24.20;59.30;;;;;;6250706;28;19928;-42
2022/09/01 05:18:23;;;;;;;;;;;24.50;59.50;;;;;;6249740;28;19975;-40
2022/09/01 05:21:27;;;;;;;;;;;24.40;59.50;;;;;;6247104;28;19964;-39
2022/09/01 05:24:33;;;;;;;;;;;24.30;59.40;;;;;;6249876;28;20055;-40
2022/09/01 05:27:48;;;;;;;;;;;24.20;59.30;;;;;;6248690;28;19924;-40
2022/09/01 05:30:53;;;;;;;;;;;24.30;59.40;;;;;;6250232;28;19940;-40
2022/09/01 05:34:00;;;;;;;;;;;24.20;59.40;;;;;;6244049;28;19932;-43
2022/09/01 05:37:05;;;;;;;;;;;24.30;59.40;;;;;;6243250;28;20194;-41
2022/09/01 05:40:08;;;;;;;;;;;24.50;60.10;;;;;;6223741;28;19994;-40
2022/09/01 05:43:13;;;;;;;;;;;24.40;59.50;;;;;;6225849;28;19932;-40
2022/09/01 05:46:17;;;;;;;;;;;24.20;59.50;;;;;;6244593;28;19928;-40
2022/09/01 05:49:23;;;;;;;;;;;24.20;59.30;;;;;;6226764;28;19932;-40
2022/09/01 05:52:25;;;;;;;;;;;24.50;59.70;;;;;;6240163;28;20012;-39
2022/09/01 05:55:34;;;;;;;;;;;24.50;59.60;;;;;;6230161;28;20769;-41
2022/09/01 05:58:38;;;;;;;;;;;24.10;59.40;;;;;;6222694;28;19932;-42
2022/09/01 06:02:00;;;;;;;;;;;24.30;59.50;;;;;;6203735;28;19932;-40
2022/09/01 06:05:02;;;;;;;;;;;24.50;59.70;;;;;;6186155;28;19932;-40
2022/09/01 06:08:09;;;;;;;;;;;23.90;59.30;;;;;;6210534;28;19932;-40
2022/09/01 06:11:15;;;;;;;;;;;24.20;59.50;;;;;;6208923;28;20760;-40
2022/09/01 06:14:17;;;;;;;;;;;24.30;59.50;;;;;;6198222;28;19932;-40
2022/09/01 06:17:23;;;;;;;;;;;24.40;59.70;;;;;;6191300;28;19932;-41
2022/09/01 06:20:26;;;;;;;;;;;24.50;59.60;;;;;;6196466;28;20045;-40
2022/09/01 06:23:27;;;;;;;;;;;24.10;59.40;;;;;;6171633;28;19933;-40
2022/09/01 06:26:30;;;;;;;;;;;24.00;59.30;;;;;;6193036;28;20001;-40
2022/09/01 06:29:34;;;;;;;;;;;24.40;59.60;;;;;;6168868;28;20902;-41
2022/09/01 06:32:37;;;;;;;;;;;24.30;59.50;;;;;;6183467;28;19968;-40
2022/09/01 06:35:40;;;;;;;;;;;24.30;59.40;;;;;;6179254;28;20053;-40
2022/09/01 06:38:42;;;;;;;;;;;24.00;59.30;;;;;;6168651;28;20017;-40
2022/09/01 06:41:44;;;;;;;;;;;24.50;59.50;;;;;;6162462;28;22325;-40
2022/09/01 06:44:47;;;;;;;;;;;24.50;59.50;;;;;;6139274;28;20010;-40
2022/09/01 06:47:51;;;;;;;;;;;24.40;59.60;;;;;;6132138;28;19939;-40
2022/09/01 06:51:02;;;;;;;;;;;24.30;59.50;;;;;;6159439;28;19943;-42
2022/09/01 06:54:25;;;;;;;;;;;24.50;59.70;;;;;;6117043;28;21974;-41
2022/09/01 06:57:29;;;;;;;;;;;24.50;59.50;;;;;;6130712;28;19939;-40
2022/09/01 07:00:51;;;;;;;;;;;24.50;59.50;;;;;;6092175;28;20006;-41
2022/09/01 07:03:55;;;;;;;;;;;24.40;59.40;;;;;;6115929;28;19932;-40
2022/09/01 07:07:14;;;;;;;;;;;24.50;59.60;;;;;;6104672;28;20111;-40
2022/09/01 07:10:49;;;;;;;;;;;24.10;59.20;;;;;;6060664;28;19985;-40
2022/09/01 07:14:15;;;;;;;;;;;24.50;59.40;;;;;;6057514;28;20106;-39
2022/09/01 07:17:18;;;;;;;;;;;24.70;59.50;;;;;;6084318;28;19932;-42
2022/09/01 07:20:28;;;;;;;;;;;24.70;59.30;;;;;;6073551;28;20058;-39
2022/09/01 07:23:31;;;;;;;;;;;24.60;59.10;;;;;;6054357;28;20072;-39
2022/09/01 07:26:49;;;;;;;;;;;24.40;58.90;;;;;;6064264;28;19938;-40
2022/09/01 07:29:54;;;;;;;;;;;24.70;58.90;;;;;;6037610;28;19975;-40
2022/09/01 07:32:56;;;;;;;;;;;24.40;58.70;;;;;;6003437;28;21089;-40
2022/09/01 07:36:18;;;;;;;;;;;24.90;58.90;;;;;;5977662;28;19936;-39
2022/09/01 07:39:43;;;;;;;;;;;24.80;59.30;;;;;;6016650;28;19932;-39
2022/09/01 07:43:15;;;;;;;;;;;24.50;58.50;;;;;;5999460;28;19939;-39
2022/09/01 07:46:30;;;;;;;;;;;24.60;58.50;;;;;;5967985;28;19981;-40
2022/09/01 07:49:43;;;;;;;;;;;24.70;58.60;;;;;;5923665;28;21618;-39
2022/09/01 07:53:07;;;;;;;;;;;24.80;58.70;;;;;;5974471;28;20167;-40
2022/09/01 07:56:09;;;;;;;;;;;24.90;58.80;;;;;;6003835;28;19932;-39
2022/09/01 07:59:17;;;;;;;;;;;24.80;58.80;;;;;;6015144;28;19940;-39
2022/09/01 08:02:31;;;;;;;;;;;24.80;58.70;;;;;;5999496;28;20055;-39
2022/09/01 08:05:33;;;;;;;;;;;24.80;58.80;;;;;;6023100;28;19939;-39
2022/09/01 08:08:38;;;;;;;;;;;24.90;58.70;;;;;;6006785;28;20074;-38
2022/09/01 08:11:41;;;;;;;;;;;24.90;58.80;;;;;;5998381;28;21289;-39
2022/09/01 08:15:03;;;;;;;;;;;24.90;59.30;;;;;;6004764;28;20062;-40
2022/09/01 08:18:25;;;;;;;;;;;24.90;58.70;;;;;;6004325;28;19932;-39
2022/09/01 08:21:27;;;;;;;;;;;24.90;59.20;;;;;;6006191;28;19932;-41
2022/09/01 08:24:37;;;;;;;;;;;24.60;58.50;;;;;;6024183;28;19933;-39
2022/09/01 08:27:38;;;;;;;;;;;25.00;58.90;;;;;;5984796;28;20070;-39
2022/09/01 08:30:41;;;;;;;;;;;25.00;58.90;;;;;;6007851;28;22448;-39
2022/09/01 08:33:57;;;;;;;;;;;25.00;58.70;;;;;;6017222;28;20058;-40
2022/09/01 08:36:58;;;;;;;;;;;25.00;58.70;;;;;;6019898;28;20023;-39
2022/09/01 08:40:02;;;;;;;;;;;25.20;58.70;;;;;;6011184;28;19932;-39
2022/09/01 08:43:11;;;;;;;;;;;25.00;58.50;;;;;;6022146;28;22094;-39
2022/09/01 08:46:22;;;;;;;;;;;24.90;58.50;;;;;;5960886;28;21281;-38
2022/09/01 08:49:24;;;;;;;;;;;25.00;58.50;;;;;;5983098;28;22508;-40
2022/09/01 08:52:41;;;;;;;;;;;25.10;58.50;;;;;;5970184;28;19932;-39
2022/09/01 08:55:46;;;;;;;;;;;25.10;58.50;;;;;;5978290;28;22770;-39
2022/09/01 08:58:48;;;;;;;;;;;25.20;58.50;;;;;;5973618;28;22302;-39
2022/09/01 09:02:17;;;;;;;;;;;25.10;58.60;;;;;;5955386;28;19939;-39
2022/09/01 09:05:25;;;;;;;;;;;25.20;58.60;;;;;;5993372;28;20061;-40
2022/09/01 09:08:33;;;;;;;;;;;25.10;58.60;;;;;;5993992;28;20671;-41
2022/09/01 09:11:45;;;;;;;;;;;25.30;58.60;;;;;;5975638;28;20263;-41
2022/09/01 09:14:54;;;;;;;;;;;25.00;58.30;;;;;;6002843;28;20458;-40
2022/09/01 09:17:58;;;;;;;;;;;25.30;58.40;;;;;;5973794;28;19932;-42
2022/09/01 09:21:05;;;;;;;;;;;25.20;58.40;;;;;;6005260;28;21168;-39
2022/09/01 09:24:09;;;;;;;;;;;25.30;58.30;;;;;;5979062;28;19932;-43
2022/09/01 09:27:15;;;;;;;;;;;25.00;58.10;;;;;;5954385;28;19939;-40
2022/09/01 09:30:20;;;;;;;;;;;25.30;58.40;;;;;;5948480;28;21108;-42
2022/09/01 09:33:33;;;;;;;;;;;25.20;58.20;;;;;;5957082;28;21414;-41
2022/09/01 09:36:54;;;;;;;;;;;25.40;58.30;;;;;;5956155;28;19932;-41
2022/09/01 09:40:03;;;;;;;;;;;25.30;58.30;;;;;;5977990;28;20063;-40
2022/09/01 09:43:06;;;;;;;;;;;25.20;58.10;;;;;;5945157;28;19932;-40
2022/09/01 09:46:18;;;;;;;;;;;25.40;58.30;;;;;;5964998;28;19932;-40
2022/09/01 09:49:31;;;;;;;;;;;25.60;58.30;;;;;;5978427;28;19972;-43
2022/09/01 09:52:38;;;;;;;;;;;25.40;58.30;;;;;;5967075;28;19990;-40
2022/09/01 09:55:52;;;;;;;;;;;25.40;58.30;;;;;;5973123;28;19936;-40
2022/09/01 09:58:57;;;;;;;;;;;25.40;58.30;;;;;;5986594;28;22769;-40
2022/09/01 10:01:59;;;;;;;;;;;25.40;58.10;;;;;;5952035;28;21887;-43
2022/09/01 10:05:20;;;;;;;;;;;25.50;58.20;;;;;;5950529;28;19933;-39
2022/09/01 10:08:36;;;;;;;;;;;25.60;58.20;;;;;;5937073;28;21738;-43
2022/09/01 10:11:39;;;;;;;;;;;25.60;58.20;;;;;;5978713;28;21997;-40
2022/09/01 10:14:46;;;;;;;;;;;25.70;58.20;;;;;;5974547;28;20987;-42
2022/09/01 10:17:58;;;;;;;;;;;25.60;58.10;;;;;;5955423;28;22278;-42
2022/09/01 10:21:24;;;;;;;;;;;25.70;58.20;;;;;;5992026;28;20074;-40
2022/09/01 10:24:29;;;;;;;;;;;25.60;58.10;;;;;;6029035;28;19999;-43
2022/09/01 10:27:34;;;;;;;;;;;25.70;58.10;;;;;;6015398;28;20045;-41
2022/09/01 10:30:36;;;;;;;;;;;25.60;58.70;;;;;;6047185;28;20017;-42
2022/09/01 10:33:38;;;;;;;;;;;25.60;58.00;;;;;;6057264;28;19943;-41
2022/09/01 10:36:43;;;;;;;;;;;25.80;58.20;;;;;;6071425;28;19932;-44
2022/09/01 10:40:04;;;;;;;;;;;25.50;57.90;;;;;;6062178;28;20325;-40
2022/09/01 10:43:17;;;;;;;;;;;25.60;57.90;;;;;;6098757;28;20395;-40
2022/09/01 10:46:34;;;;;;;;;;;25.40;57.90;;;;;;6075385;28;21107;-39
2022/09/01 10:49:59;;;;;;;;;;;25.60;58.10;;;;;;6093936;28;19932;-39
2022/09/01 10:53:05;;;;;;;;;;;25.60;58.20;;;;;;6104446;28;19975;-41
2022/09/01 10:56:09;;;;;;;;;;;25.60;58.30;;;;;;6123629;28;20056;-40
2022/09/01 10:59:25;;;;;;;;;;;25.60;58.30;;;;;;6117509;28;20807;-39
2022/09/01 11:02:41;;;;;;;;;;;25.60;58.40;;;;;;6102697;28;20000;-40
2022/09/01 11:05:58;;;;;;;;;;;25.40;58.30;;;;;;6127924;28;19932;-40
2022/09/01 11:09:20;;;;;;;;;;;25.60;58.50;;;;;;6143850;28;19941;-39
2022/09/01 11:12:36;;;;;;;;;;;25.60;58.60;;;;;;6122393;28;20103;-40
2022/09/01 11:15:39;;;;;;;;;;;25.50;58.50;;;;;;6150456;28;20062;-39
2022/09/01 11:18:41;;;;;;;;;;;25.60;58.60;;;;;;6153768;28;20049;-40
2022/09/01 11:21:44;;;;;;;;;;;25.50;58.60;;;;;;6135668;28;20051;-40
2022/09/01 11:24:51;;;;;;;;;;;25.50;58.60;;;;;;6146443;28;20058;-39
2022/09/01 11:28:05;;;;;;;;;;;25.50;58.60;;;;;;6119407;28;19939;-39
2022/09/01 11:31:13;;;;;;;;;;;25.40;58.60;;;;;;6144394;28;20925;-40
2022/09/01 11:34:16;;;;;;;;;;;25.40;58.60;;;;;;6113563;28;21048;-40
2022/09/01 11:37:21;;;;;;;;;;;25.50;58.70;;;;;;6101666;28;19940;-39
2022/09/01 11:40:25;;;;;;;;;;;25.70;59.00;;;;;;6109843;28;19939;-40
2022/09/01 11:43:32;;;;;;;;;;;25.20;58.50;;;;;;6091828;28;19936;-38
2022/09/01 11:46:34;;;;;;;;;;;25.50;58.80;;;;;;6102593;28;19932;-40
2022/09/01 11:49:38;;;;;;;;;;;25.50;58.80;;;;;;6101815;28;21248;-38
2022/09/01 11:52:40;;;;;;;;;;;25.50;58.70;;;;;;6077429;28;19936;-38
2022/09/01 11:55:43;;;;;;;;;;;25.40;58.50;;;;;;6066591;28;19946;-38
2022/09/01 11:58:45;;;;;;;;;;;25.60;58.60;;;;;;6041837;28;19932;-41
2022/09/01 12:01:46;;;;;;;;;;;25.60;58.70;;;;;;5976998;28;24721;-39
2022/09/01 12:04:49;;;;;;;;;;;25.60;58.50;;;;;;5986199;28;19932;-39
2022/09/01 12:07:51;;;;;;;;;;;25.60;58.60;;;;;;5955479;28;20128;-39
2022/09/01 12:11:02;;;;;;;;;;;25.70;58.50;;;;;;5990175;28;19936;-41
2022/09/01 12:14:04;;;;;;;;;;;25.70;58.50;;;;;;5977121;28;20038;-44
2022/09/01 12:17:19;;;;;;;;;;;25.70;58.60;;;;;;5979817;28;21501;-40
2022/09/01 12:20:23;;;;;;;;;;;25.80;58.50;;;;;;5990241;28;20278;-41
2022/09/01 12:23:31;;;;;;;;;;;25.70;58.50;;;;;;6010541;28;19932;-41
2022/09/01 12:26:33;;;;;;;;;;;25.70;58.40;;;;;;5990021;28;19932;-40
2022/09/01 12:29:36;;;;;;;;;;;25.90;58.90;;;;;;5977076;28;20691;-40
2022/09/01 12:32:39;;;;;;;;;;;26.10;59.10;;;;;;5923951;28;21248;-41
2022/09/01 12:35:40;;;;;;;;;;;26.00;58.60;;;;;;5927082;28;20504;-42
2022/09/01 12:38:42;;;;;;;;;;;25.50;58.60;;;;;;5957366;28;19950;-44
2022/09/01 12:41:45;;;;;;;;;;;26.00;58.90;;;;;;5950469;28;19940;-41
2022/09/01 12:44:50;;;;;;;;;;;26.00;58.80;;;;;;6000279;28;24977;-43
2022/09/01 12:47:51;;;;;;;;;;;25.80;58.60;;;;;;6000329;28;22856;-42
2022/09/01 12:50:53;;;;;;;;;;;26.20;58.90;;;;;;5972772;28;20354;-41
2022/09/01 12:53:56;;;;;;;;;;;26.00;58.70;;;;;;5991824;28;21518;-42
2022/09/01 12:57:00;;;;;;;;;;;26.00;58.60;;;;;;5984035;28;21048;-45
2022/09/01 13:00:06;;;;;;;;;;;26.10;58.70;;;;;;5962185;28;19974;-43
2022/09/01 13:03:12;;;;;;;;;;;25.80;58.50;;;;;;5897052;28;19933;-41
2022/09/01 13:06:14;;;;;;;;;;;26.10;58.80;;;;;;5885345;28;21417;-41
2022/09/01 13:09:16;;;;;;;;;;;26.00;58.70;;;;;;5956184;28;19932;-41
2022/09/01 13:12:20;;;;;;;;;;;26.20;58.90;;;;;;5943051;28;19936;-42
2022/09/01 13:15:22;;;;;;;;;;;26.10;58.80;;;;;;5927060;28;20083;-45
2022/09/01 13:18:24;;;;;;;;;;;26.10;58.30;;;;;;5947935;28;19932;-41
2022/09/01 13:21:27;;;;;;;;;;;26.00;58.60;;;;;;5951983;28;19939;-43
2022/09/01 13:24:29;;;;;;;;;;;26.00;58.60;;;;;;5919260;28;21470;-42
2022/09/01 13:27:33;;;;;;;;;;;26.30;58.80;;;;;;5937283;28;19939;-42
2022/09/01 13:30:34;;;;;;;;;;;26.20;58.70;;;;;;5959423;28;20847;-42
2022/09/01 13:33:36;;;;;;;;;;;25.80;58.40;;;;;;5962040;28;20021;-41
2022/09/01 13:36:57;;;;;;;;;;;26.20;58.80;;;;;;5951530;28;19986;-45
2022/09/01 13:39:59;;;;;;;;;;;25.80;58.30;;;;;;5966066;28;19980;-42
2022/09/01 13:43:03;;;;;;;;;;;26.30;58.70;;;;;;5954045;28;19932;-45
2022/09/01 13:46:05;;;;;;;;;;;26.10;58.50;;;;;;5936634;28;19932;-45
2022/09/01 13:49:06;;;;;;;;;;;26.20;58.60;;;;;;5978319;28;19932;-43
2022/09/01 13:52:28;;;;;;;;;;;26.30;58.60;;;;;;5973302;28;19939;-44
2022/09/01 13:55:31;;;;;;;;;;;26.20;58.70;;;;;;5951421;28;19938;-42
2022/09/01 13:58:33;;;;;;;;;;;26.10;58.60;;;;;;5975821;28;19932;-41
2022/09/01 14:01:34;;;;;;;;;;;26.00;58.50;;;;;;5964312;28;19932;-41
2022/09/01 14:04:35;;;;;;;;;;;25.80;58.50;;;;;;5962215;28;19940;-41
2022/09/01 14:07:38;;;;;;;;;;;26.30;58.90;;;;;;5967000;28;24885;-53
2022/09/01 14:10:41;;;;;;;;;;;26.20;58.70;;;;;;5981667;28;19932;-48
2022/09/01 14:13:44;;;;;;;;;;;26.20;58.70;;;;;;5939512;28;19932;-46
2022/09/01 14:16:46;;;;;;;;;;;26.10;58.60;;;;;;6029102;28;20517;-49
2022/09/01 14:19:48;;;;;;;;;;;26.60;59.00;;;;;;6008336;28;19939;-41
2022/09/01 14:22:50;;;;;;;;;;;26.20;58.90;;;;;;5999808;28;20084;-44
2022/09/01 14:25:51;;;;;;;;;;;26.00;58.60;;;;;;5983143;28;20006;-43
2022/09/01 14:28:55;;;;;;;;;;;26.00;58.50;;;;;;6007578;28;23259;-43
2022/09/01 14:31:56;;;;;;;;;;;26.00;58.40;;;;;;6012899;28;19939;-47
2022/09/01 14:34:58;;;;;;;;;;;26.30;58.70;;;;;;6001315;28;19932;-43
2022/09/01 14:38:01;;;;;;;;;;;26.10;58.60;;;;;;5976150;28;19932;-43
2022/09/01 14:41:03;;;;;;;;;;;26.30;58.60;;;;;;5950272;28;20309;-45
2022/09/01 14:44:05;;;;;;;;;;;26.10;58.40;;;;;;5981194;28;19933;-41
2022/09/01 14:47:07;;;;;;;;;;;25.90;58.10;;;;;;5992287;28;19932;-41
2022/09/01 14:50:13;;;;;;;;;;;26.30;58.40;;;;;;5981643;28;20025;-41
2022/09/01 14:53:19;;;;;;;;;;;26.30;58.40;;;;;;5969787;28;19932;-42
2022/09/01 14:56:21;;;;;;;;;;;26.10;58.50;;;;;;6014350;28;20414;-42
2022/09/01 14:59:24;;;;;;;;;;;26.40;58.50;;;;;;5979215;28;26842;-44
2022/09/01 15:02:27;;;;;;;;;;;26.30;58.40;;;;;;6008944;28;20080;-41
2022/09/01 15:05:28;;;;;;;;;;;26.10;58.30;;;;;;6018947;28;21131;-41
2022/09/01 15:08:40;;;;;;;;;;;26.10;58.30;;;;;;6047195;28;19932;-43
2022/09/01 15:11:41;;;;;;;;;;;26.60;58.60;;;;;;6040252;28;19936;-43
2022/09/01 15:14:47;;;;;;;;;;;26.00;58.90;;;;;;6041170;28;19935;-43
2022/09/01 15:17:48;;;;;;;;;;;26.00;58.20;;;;;;6036428;28;20538;-42
2022/09/01 15:20:50;;;;;;;;;;;26.20;58.40;;;;;;6041352;28;19939;-44
2022/09/01 15:23:52;;;;;;;;;;;26.30;58.70;;;;;;6073611;28;22509;-42
2022/09/01 15:26:54;;;;;;;;;;;26.30;58.50;;;;;;6064771;28;19973;-42
2022/09/01 15:29:57;;;;;;;;;;;26.20;58.30;;;;;;6046998;28;22899;-41
2022/09/01 15:32:58;;;;;;;;;;;26.30;58.30;;;;;;6031535;28;19932;-42
2022/09/01 15:36:00;;;;;;;;;;;26.20;58.30;;;;;;6051472;28;19932;-43
2022/09/01 15:39:02;;;;;;;;;;;26.20;58.30;;;;;;6060960;28;20050;-41
2022/09/01 15:42:03;;;;;;;;;;;26.40;58.50;;;;;;6026941;28;24383;-42
2022/09/01 15:45:07;;;;;;;;;;;26.30;58.50;;;;;;6031419;28;20038;-41
2022/09/01 15:48:09;;;;;;;;;;;26.00;59.00;;;;;;6028472;28;36075;-42
2022/09/01 15:51:29;;;;;;;;;;;26.00;58.40;;;;;;6053585;28;20059;-41
2022/09/01 15:54:35;;;;;;;;;;;26.30;58.70;;;;;;6052456;28;19932;-42
2022/09/01 15:57:37;;;;;;;;;;;26.10;58.80;;;;;;6035294;28;19938;-42
2022/09/01 16:00:42;;;;;;;;;;;26.20;58.90;;;;;;6049989;28;19932;-41
2022/09/01 16:03:44;;;;;;;;;;;25.90;58.70;;;;;;6053617;28;25556;-42
2022/09/01 16:06:47;;;;;;;;;;;26.10;58.80;;;;;;6088739;28;20124;-42
2022/09/01 16:09:48;;;;;;;;;;;25.70;58.60;;;;;;6101637;28;19932;-45
2022/09/01 16:12:50;;;;;;;;;;;26.10;58.90;;;;;;6089584;28;19939;-42
2022/09/01 16:16:00;;;;;;;;;;;25.60;58.60;;;;;;6095699;28;19983;-41
2022/09/01 16:19:05;;;;;;;;;;;25.80;58.60;;;;;;6128028;28;19933;-43
2022/09/01 16:22:10;;;;;;;;;;;25.80;58.80;;;;;;6097365;28;19939;-42
2022/09/01 16:25:12;;;;;;;;;;;26.10;58.90;;;;;;6164331;28;19940;-41
2022/09/01 16:28:23;;;;;;;;;;;25.80;58.80;;;;;;6157441;28;19946;-41
2022/09/01 16:31:26;;;;;;;;;;;26.00;59.00;;;;;;6161442;28;21320;-42
2022/09/01 16:34:30;;;;;;;;;;;25.90;58.90;;;;;;6151848;28;20826;-42
2022/09/01 16:37:39;;;;;;;;;;;26.00;59.00;;;;;;6151163;28;21315;-41
2022/09/01 16:40:46;;;;;;;;;;;26.10;59.10;;;;;;6164397;28;19935;-41
2022/09/01 16:43:51;;;;;;;;;;;25.60;58.80;;;;;;6132444;28;19936;-43
2022/09/01 16:46:57;;;;;;;;;;;25.50;58.80;;;;;;6161306;28;19967;-42
2022/09/01 16:50:04;;;;;;;;;;;25.80;59.00;;;;;;6168681;28;19975;-44
2022/09/01 16:53:10;;;;;;;;;;;25.90;59.70;;;;;;6160125;28;20251;-42
2022/09/01 16:56:13;;;;;;;;;;;25.80;59.10;;;;;;6182061;28;20794;-42
2022/09/01 16:59:20;;;;;;;;;;;25.80;59.20;;;;;;6186098;28;20080;-43
2022/09/01 17:02:31;;;;;;;;;;;26.00;59.30;;;;;;6181757;28;19942;-41
2022/09/01 17:05:35;;;;;;;;;;;25.50;59.10;;;;;;6188073;28;21742;-41
2022/09/01 17:08:44;;;;;;;;;;;25.80;59.30;;;;;;6193957;28;20322;-40
2022/09/01 17:11:48;;;;;;;;;;;25.60;59.20;;;;;;6188188;28;21348;-42
2022/09/01 17:14:55;;;;;;;;;;;25.90;59.50;;;;;;6197861;28;19928;-42
2022/09/01 17:18:02;;;;;;;;;;;25.50;59.30;;;;;;6195441;28;21045;-42
2022/09/01 17:21:10;;;;;;;;;;;25.70;59.40;;;;;;6207663;28;21102;-44
2022/09/01 17:24:22;;;;;;;;;;;25.70;59.40;;;;;;6218616;28;19932;-42
2022/09/01 17:27:25;;;;;;;;;;;25.30;59.30;;;;;;6177519;28;20956;-41
2022/09/01 17:30:30;;;;;;;;;;;25.40;59.50;;;;;;6198837;28;19940;-42
2022/09/01 17:33:37;;;;;;;;;;;25.70;59.70;;;;;;6218741;28;19932;-44
2022/09/01 17:36:45;;;;;;;;;;;25.40;59.60;;;;;;6219626;28;20493;-42
2022/09/01 17:39:54;;;;;;;;;;;25.50;59.70;;;;;;6217832;28;19928;-44
2022/09/01 17:42:59;;;;;;;;;;;25.50;59.80;;;;;;6227680;28;20017;-42
2022/09/01 17:46:05;;;;;;;;;;;25.60;59.90;;;;;;6221589;28;19931;-42
2022/09/01 17:49:09;;;;;;;;;;;25.30;59.70;;;;;;6219009;28;19936;-41
2022/09/01 17:52:14;;;;;;;;;;;25.10;59.70;;;;;;6208068;28;20001;-43
2022/09/01 17:55:21;;;;;;;;;;;25.30;59.80;;;;;;6228851;28;21206;-41
2022/09/01 17:58:30;;;;;;;;;;;25.90;60.30;;;;;;6228305;28;19932;-42
2022/09/01 18:01:37;;;;;;;;;;;25.40;60.00;;;;;;6208226;28;19967;-43
2022/09/01 18:04:45;;;;;;;;;;;25.50;60.10;;;;;;6210140;28;19932;-45